Time;durP1;ratioP1;P1;durP2;ratioP2;P2;SDS_P1;SDS_P2;PMS_P1;PMS_P2;Temp;Humidity;BMP_temperature;BMP_pressure;BME280_temperature;BME280_humidity;BME280_pressure;Samples;Min_cycle;Max_cycle;Signal;HPM_P1;HPM_P2
2023/02/17 00:00:10;;;;;;;78.10;35.50;;;;;;;0.46;100.00;98599.91;106288;1257;61714;-78
2023/02/17 00:02:57;;;;;;;75.00;34.90;;;;;;;0.51;100.00;98596.63;106234;1257;72543;-77
2023/02/17 00:05:24;;;;;;;78.40;34.00;;;;;;;0.51;100.00;98599.05;106376;1254;73612;-80
2023/02/17 00:07:50;;;;;;;77.60;34.60;;;;;;;0.53;100.00;98598.73;106342;1256;165395;-79
2023/02/17 00:10:17;;;;;;;70.80;33.40;;;;;;;0.54;100.00;98600.17;106354;1256;61247;-80
2023/02/17 00:12:44;;;;;;;70.50;34.50;;;;;;;0.52;100.00;98604.82;106241;1257;61291;-79
2023/02/17 00:15:10;;;;;;;75.20;32.20;;;;;;;0.50;100.00;98604.21;106274;1254;71036;-77
2023/02/17 00:17:37;;;;;;;64.10;30.30;;;;;;;0.47;100.00;98602.73;106319;1257;62261;-81
2023/02/17 00:20:04;;;;;;;65.40;31.20;;;;;;;0.49;100.00;98602.08;106308;1255;61257;-77
2023/02/17 00:22:30;;;;;;;66.20;33.10;;;;;;;0.48;100.00;98607.29;106270;1256;61198;-78
2023/02/17 00:24:57;;;;;;;60.30;30.00;;;;;;;0.43;100.00;98604.90;106259;1254;61310;-77
2023/02/17 00:27:23;;;;;;;67.60;30.30;;;;;;;0.39;100.00;98600.23;106314;1256;61333;-80
2023/02/17 00:29:50;;;;;;;64.20;29.50;;;;;;;0.36;100.00;98602.58;106296;1256;61333;-78
2023/02/17 00:32:16;;;;;;;68.60;33.70;;;;;;;0.34;100.00;98598.31;106257;1256;61164;-77
2023/02/17 00:34:42;;;;;;;73.60;35.80;;;;;;;0.32;100.00;98599.89;106316;1256;61330;-77
2023/02/17 00:37:09;;;;;;;77.20;34.50;;;;;;;0.33;100.00;98598.37;106280;1257;61278;-81
2023/02/17 00:39:35;;;;;;;63.70;30.20;;;;;;;0.35;100.00;98598.80;106454;1255;61324;-78
2023/02/17 00:42:02;;;;;;;73.40;32.90;;;;;;;0.35;100.00;98598.04;106299;1257;61333;-77
2023/02/17 00:44:28;;;;;;;82.50;36.00;;;;;;;0.35;100.00;98598.80;106376;1257;61310;-79
2023/02/17 00:46:55;;;;;;;69.30;35.00;;;;;;;0.34;100.00;98597.77;106294;1257;61227;-79
2023/02/17 00:49:23;;;;;;;71.70;33.70;;;;;;;0.35;100.00;98597.36;106352;1254;61340;-78
2023/02/17 00:51:50;;;;;;;70.90;32.20;;;;;;;0.37;100.00;98594.55;106298;1255;62422;-80
2023/02/17 00:54:16;;;;;;;77.10;38.30;;;;;;;0.40;100.00;98590.48;106336;1256;72557;-77
2023/02/17 00:56:43;;;;;;;79.00;39.20;;;;;;;0.40;100.00;98588.31;106324;1257;61300;-81
2023/02/17 00:59:09;;;;;;;76.80;34.50;;;;;;;0.41;100.00;98592.20;106346;1256;61329;-77
2023/02/17 01:01:36;;;;;;;67.50;36.20;;;;;;;0.44;100.00;98592.41;106333;1257;74599;-79
2023/02/17 01:04:03;;;;;;;74.70;34.70;;;;;;;0.44;100.00;98583.99;106411;1256;70005;-77
2023/02/17 01:06:32;;;;;;;66.80;31.70;;;;;;;0.44;100.00;98585.27;106302;1257;71420;-80
2023/02/17 01:08:59;;;;;;;61.40;28.80;;;;;;;0.47;100.00;98577.99;106261;1254;61281;-78
2023/02/17 01:11:27;;;;;;;74.10;34.10;;;;;;;0.56;100.00;98573.38;106323;1252;61235;-78
2023/02/17 01:13:54;;;;;;;71.70;36.00;;;;;;;0.60;100.00;98570.58;106407;1257;74435;-81
2023/02/17 01:16:25;;;;;;;82.40;38.70;;;;;;;0.61;100.00;98569.09;106322;1257;71237;-78
2023/02/17 01:18:52;;;;;;;67.00;33.20;;;;;;;0.63;100.00;98566.55;106370;1256;72349;-80
2023/02/17 01:21:23;;;;;;;73.80;33.10;;;;;;;0.64;100.00;98560.44;106313;1256;61294;-81
2023/02/17 01:23:51;;;;;;;73.60;35.60;;;;;;;0.71;100.00;98558.39;106347;1255;61137;-78
2023/02/17 01:26:19;;;;;;;67.90;32.70;;;;;;;0.78;100.00;98555.41;106403;1256;74698;-78
2023/02/17 01:28:45;;;;;;;66.40;33.00;;;;;;;0.82;100.00;98550.67;106321;1257;69936;-79
2023/02/17 01:31:12;;;;;;;68.00;31.60;;;;;;;0.84;100.00;98546.33;106329;1257;71180;-78
2023/02/17 01:33:39;;;;;;;58.90;31.50;;;;;;;0.85;100.00;98541.95;106287;1256;61192;-80
2023/02/17 01:36:08;;;;;;;67.00;32.50;;;;;;;0.87;100.00;98541.46;106407;1254;61212;-78
2023/02/17 01:38:35;;;;;;;72.80;33.80;;;;;;;0.90;100.00;98539.81;106381;1254;74586;-78
2023/02/17 01:41:02;;;;;;;51.00;26.70;;;;;;;0.92;100.00;98537.63;106397;1257;70016;-77
2023/02/17 01:43:28;;;;;;;68.30;32.30;;;;;;;0.93;100.00;98541.48;106310;1257;72140;-80
2023/02/17 01:45:59;;;;;;;68.60;34.50;;;;;;;0.96;100.00;98535.42;106281;1256;61215;-79
2023/02/17 01:48:34;;;;;;;58.30;25.30;;;;;;;0.98;100.00;98533.33;106323;1258;61206;-78
2023/02/17 01:51:08;;;;;;;46.80;24.30;;;;;;;1.00;100.00;98532.54;106197;1266;74467;-78
2023/02/17 01:53:38;;;;;;;64.70;31.40;;;;;;;1.01;100.00;98530.20;106167;1258;69006;-79
2023/02/17 01:56:05;;;;;;;72.10;33.50;;;;;;;1.02;100.00;98529.86;106392;1254;71190;-80
2023/02/17 01:58:31;;;;;;;55.90;28.50;;;;;;;0.99;100.00;98529.80;106285;1256;61930;-77
2023/02/17 02:00:59;;;;;;;63.60;33.50;;;;;;;0.94;100.00;98534.55;106364;1256;61233;-77
2023/02/17 02:03:27;;;;;;;50.80;21.70;;;;;;;0.88;100.00;98527.17;106373;1256;73303;-80
2023/02/17 02:05:53;;;;;;;64.40;34.70;;;;;;;0.88;100.00;98526.35;106172;1257;70918;-78
2023/02/17 02:08:20;;;;;;;69.20;31.60;;;;;;;0.88;100.00;98519.61;106300;1254;61260;-80
2023/02/17 02:10:46;;;;;;;66.60;34.70;;;;;;;0.87;100.00;98521.10;106259;1256;61343;-79
2023/02/17 02:13:13;;;;;;;61.40;30.10;;;;;;;0.86;100.00;98520.11;106323;1254;61268;-78
2023/02/17 02:15:43;;;;;;;69.00;34.70;;;;;;;0.86;100.00;98521.55;106283;1254;61253;-80
2023/02/17 02:18:30;;;;;;;65.10;35.60;;;;;;;0.84;100.00;98516.64;106304;1257;70044;-77
2023/02/17 02:21:17;;;;;;;72.20;35.10;;;;;;;0.82;100.00;98515.83;106335;1256;72493;-79
2023/02/17 02:23:52;;;;;;;69.20;34.60;;;;;;;0.83;100.00;98515.42;106277;1254;61273;-76
2023/02/17 02:26:33;;;;;;;67.40;32.70;;;;;;;0.83;100.00;98510.95;106278;1254;61330;-79
2023/02/17 02:29:11;;;;;;;64.30;31.40;;;;;;;0.81;100.00;98511.16;106136;1254;72389;-77
2023/02/17 02:32:16;;;;;;;46.70;22.10;;;;;;;0.80;100.00;98508.83;106321;1254;70144;-77
2023/02/17 02:35:14;;;;;;;40.90;20.30;;;;;;;0.83;100.00;98509.05;106307;1254;72533;-79
2023/02/17 02:38:07;;;;;;;67.10;31.70;;;;;;;0.89;100.00;98508.53;106210;1256;61144;-79
2023/02/17 02:40:35;;;;;;;45.60;20.60;;;;;;;0.92;100.00;98510.04;106234;1256;61163;-78
2023/02/17 02:43:02;;;;;;;53.80;22.40;;;;;;;0.96;100.00;98510.21;106305;1252;73389;-79
2023/02/17 02:45:29;;;;;;;56.80;26.70;;;;;;;1.01;100.00;98514.38;105982;1254;70918;-78
2023/02/17 02:47:56;;;;;;;61.50;27.30;;;;;;;1.03;100.00;98505.36;106046;1254;72534;-78
2023/02/17 02:51:00;;;;;;;55.80;29.60;;;;;;;1.03;100.00;98504.63;106323;1257;61128;-77
2023/02/17 02:53:31;;;;;;;58.70;29.60;;;;;;;0.99;100.00;98511.44;106298;1254;61306;-80
2023/02/17 02:56:16;;;;;;;52.10;23.20;;;;;;;0.93;100.00;98515.13;106269;1256;73875;-79
2023/02/17 02:59:22;;;;;;;59.40;30.90;;;;;;;0.88;100.00;98518.06;106266;1254;70721;-77
2023/02/17 03:02:18;;;;;;;59.30;28.00;;;;;;;0.83;100.00;98517.44;106244;1255;72768;-77
2023/02/17 03:04:51;;;;;;;51.30;25.60;;;;;;;0.81;100.00;98514.08;106251;1256;61718;-77
2023/02/17 03:07:35;;;;;;;58.90;30.10;;;;;;;0.76;100.00;98513.11;106333;1256;62318;-80
2023/02/17 03:10:02;;;;;;;57.80;28.00;;;;;;;0.70;100.00;98516.21;106337;1256;74514;-79
2023/02/17 03:12:29;;;;;;;52.40;24.80;;;;;;;0.66;100.00;98512.58;106309;1257;69908;-80
2023/02/17 03:15:05;;;;;;;48.80;25.40;;;;;;;0.60;100.00;98506.77;106073;1254;61345;-77
2023/02/17 03:17:32;;;;;;;51.80;25.90;;;;;;;0.49;100.00;98502.96;106417;1257;61135;-80
2023/02/17 03:20:00;;;;;;;55.50;23.80;;;;;;;0.41;100.00;98503.85;106361;1254;61217;-80
2023/02/17 03:22:30;;;;;;;56.70;29.10;;;;;;;0.44;100.00;98504.77;106285;1254;73413;-79
2023/02/17 03:24:58;;;;;;;55.30;29.10;;;;;;;0.48;100.00;98505.05;106230;1255;71145;-79
2023/02/17 03:27:26;;;;;;;60.40;28.40;;;;;;;0.57;100.00;98508.08;106042;1255;72526;-79
2023/02/17 03:29:52;;;;;;;59.00;29.70;;;;;;;0.68;100.00;98503.52;106342;1256;61554;-79
2023/02/17 03:32:19;;;;;;;48.30;19.90;;;;;;;0.78;100.00;98508.95;106254;1256;61152;-78
2023/02/17 03:34:45;;;;;;;50.80;24.70;;;;;;;0.89;100.00;98509.48;106096;1260;61202;-79
2023/02/17 03:37:12;;;;;;;62.50;29.40;;;;;;;0.96;100.00;98511.53;106258;1255;61333;-79
2023/02/17 03:39:38;;;;;;;60.90;30.00;;;;;;;0.97;100.00;98505.12;106296;1257;61259;-79
2023/02/17 03:42:05;;;;;;;60.70;33.60;;;;;;;0.94;100.00;98506.84;106272;1254;61238;-77
2023/02/17 03:44:31;;;;;;;62.90;31.40;;;;;;;0.91;100.00;98508.45;106420;1256;61237;-80
2023/02/17 03:46:58;;;;;;;67.00;32.70;;;;;;;0.86;100.00;98510.01;106363;1254;61263;-81
2023/02/17 03:49:24;;;;;;;43.90;21.00;;;;;;;0.80;100.00;98508.86;106526;1256;62393;-78
2023/02/17 03:51:51;;;;;;;61.30;29.50;;;;;;;0.78;100.00;98512.27;106323;1257;61344;-80
2023/02/17 03:54:17;;;;;;;72.00;35.40;;;;;;;0.76;100.00;98507.02;106316;1257;61259;-81
2023/02/17 03:56:43;;;;;;;78.70;30.10;;;;;;;0.75;100.00;98502.15;106314;1254;61271;-81
2023/02/17 03:59:10;;;;;;;59.20;30.60;;;;;;;0.80;100.00;98499.05;106360;1257;61333;-77
2023/02/17 04:01:36;;;;;;;61.40;29.50;;;;;;;0.83;100.00;98488.73;106396;1257;61322;-77
2023/02/17 04:04:03;;;;;;;60.50;31.30;;;;;;;0.84;100.00;98484.42;106308;1257;61230;-79
2023/02/17 04:06:29;;;;;;;68.40;34.00;;;;;;;0.83;100.00;98482.58;106275;1257;61359;-78
2023/02/17 04:08:56;;;;;;;62.20;34.00;;;;;;;0.83;100.00;98484.59;106295;1254;61416;-77
2023/02/17 04:11:22;;;;;;;65.10;31.50;;;;;;;0.84;100.00;98482.86;106276;1255;60910;-78
2023/02/17 04:13:49;;;;;;;60.40;31.90;;;;;;;0.87;100.00;98478.83;106271;1257;61348;-79
2023/02/17 04:16:15;;;;;;;56.80;29.70;;;;;;;0.88;100.00;98474.17;106274;1254;61330;-80
2023/02/17 04:18:42;;;;;;;56.50;29.50;;;;;;;0.91;100.00;98475.84;106234;1254;62064;-79
2023/02/17 04:21:08;;;;;;;59.80;29.00;;;;;;;0.94;100.00;98480.61;106335;1254;61257;-77
2023/02/17 04:23:35;;;;;;;64.90;32.10;;;;;;;0.97;100.00;98479.30;106240;1256;61339;-79
2023/02/17 04:26:03;;;;;;;67.40;36.50;;;;;;;0.94;100.00;98475.44;106281;1254;61261;-78
2023/02/17 04:28:29;;;;;;;70.70;32.70;;;;;;;0.90;100.00;98482.52;106271;1253;71431;-78
2023/02/17 04:30:56;;;;;;;60.00;33.10;;;;;;;0.85;100.00;98479.02;106311;1256;61276;-77
2023/02/17 04:33:23;;;;;;;61.20;32.20;;;;;;;0.85;100.00;98476.47;106363;1254;61225;-78
2023/02/17 04:35:49;;;;;;;64.00;33.60;;;;;;;0.85;100.00;98478.30;106051;1260;61209;-79
2023/02/17 04:38:16;;;;;;;56.50;30.90;;;;;;;0.83;100.00;98471.58;106237;1254;62259;-80
2023/02/17 04:40:42;;;;;;;61.70;33.00;;;;;;;0.82;100.00;98466.91;106328;1254;61209;-78
2023/02/17 04:43:09;;;;;;;66.20;33.50;;;;;;;0.83;100.00;98465.91;106242;1254;61319;-79
2023/02/17 04:45:35;;;;;;;59.30;27.80;;;;;;;0.86;100.00;98462.06;106356;1256;61335;-80
2023/02/17 04:48:02;;;;;;;59.00;31.50;;;;;;;0.90;100.00;98464.80;106277;1254;61644;-80
2023/02/17 04:50:28;;;;;;;60.00;32.10;;;;;;;0.97;100.00;98462.10;106238;1256;74027;-78
2023/02/17 04:52:55;;;;;;;56.90;28.60;;;;;;;1.04;100.00;98463.15;106289;1253;61237;-80
2023/02/17 04:55:21;;;;;;;64.50;31.80;;;;;;;1.09;100.00;98465.56;106310;1254;61121;-78
2023/02/17 04:57:47;;;;;;;46.80;26.10;;;;;;;1.12;100.00;98462.16;106257;1254;61271;-78
2023/02/17 05:00:14;;;;;;;51.90;25.90;;;;;;;1.12;100.00;98460.59;106389;1254;61669;-80
2023/02/17 05:02:40;;;;;;;44.70;23.50;;;;;;;1.12;100.00;98459.52;106277;1254;61323;-80
2023/02/17 05:05:07;;;;;;;61.90;25.70;;;;;;;1.18;100.00;98460.33;106333;1257;61339;-78
2023/02/17 05:07:34;;;;;;;64.40;27.50;;;;;;;1.25;100.00;98456.12;106289;1254;61278;-80
2023/02/17 05:10:00;;;;;;;52.80;26.20;;;;;;;1.29;100.00;98456.61;106279;1254;61351;-78
2023/02/17 05:12:27;;;;;;;47.10;24.90;;;;;;;1.31;100.00;98452.99;106267;1254;61262;-79
2023/02/17 05:14:53;;;;;;;57.70;30.30;;;;;;;1.32;100.00;98453.52;106357;1256;62020;-79
2023/02/17 05:17:19;;;;;;;69.50;33.00;;;;;;;1.29;100.00;98451.69;106285;1257;61434;-80
2023/02/17 05:19:46;;;;;;;67.50;34.90;;;;;;;1.24;100.00;98452.77;106266;1257;61352;-80
2023/02/17 05:22:12;;;;;;;63.90;34.40;;;;;;;1.18;100.00;98446.73;106271;1254;61330;-78
2023/02/17 05:24:38;;;;;;;57.40;33.10;;;;;;;1.15;100.00;98449.21;106097;1254;61266;-80
2023/02/17 05:27:05;;;;;;;60.90;31.90;;;;;;;1.13;100.00;98446.23;106191;1254;61313;-79
2023/02/17 05:29:31;;;;;;;64.20;35.20;;;;;;;1.13;100.00;98454.23;106163;1254;61272;-78
2023/02/17 05:31:58;;;;;;;68.50;31.70;;;;;;;1.14;100.00;98459.19;106215;1254;61306;-80
2023/02/17 05:34:24;;;;;;;62.90;31.20;;;;;;;1.19;100.00;98458.19;106204;1254;61263;-78
2023/02/17 05:36:50;;;;;;;68.00;36.50;;;;;;;1.23;100.00;98458.97;106224;1254;61359;-80
2023/02/17 05:39:17;;;;;;;69.10;33.00;;;;;;;1.24;100.00;98458.76;106243;1255;61327;-79
2023/02/17 05:41:43;;;;;;;75.90;32.40;;;;;;;1.25;100.00;98453.78;106207;1254;61246;-80
2023/02/17 05:44:10;;;;;;;61.40;32.70;;;;;;;1.27;100.00;98450.23;106223;1254;61316;-79
2023/02/17 05:46:36;;;;;;;70.20;35.60;;;;;;;1.27;100.00;98444.86;106504;1254;61193;-78
2023/02/17 05:49:03;;;;;;;70.40;38.80;;;;;;;1.25;100.00;98438.95;106228;1257;61237;-78
2023/02/17 05:51:29;;;;;;;72.40;39.10;;;;;;;1.21;100.00;98433.18;106288;1254;61320;-80
2023/02/17 05:53:56;;;;;;;68.20;37.10;;;;;;;1.18;100.00;98434.54;106167;1254;61256;-79
2023/02/17 05:56:22;;;;;;;74.20;37.50;;;;;;;1.14;100.00;98435.25;106272;1254;61351;-80
2023/02/17 05:58:48;;;;;;;74.90;39.00;;;;;;;1.10;100.00;98435.17;106307;1252;61365;-80
2023/02/17 06:01:15;;;;;;;75.70;38.50;;;;;;;1.10;100.00;98436.61;106360;1253;61419;-83
2023/02/17 06:03:41;;;;;;;69.20;36.80;;;;;;;1.11;100.00;98434.80;106406;1254;61225;-77
2023/02/17 06:06:08;;;;;;;64.50;32.50;;;;;;;1.13;100.00;98429.67;106193;1257;62261;-79
2023/02/17 06:08:34;;;;;;;74.40;36.60;;;;;;;1.15;100.00;98431.39;106181;1254;61266;-79
2023/02/17 06:11:01;;;;;;;94.80;41.60;;;;;;;1.19;100.00;98428.65;106198;1254;61908;-77
2023/02/17 06:13:27;;;;;;;84.80;36.40;;;;;;;1.25;100.00;98427.48;106034;1254;61372;-77
2023/02/17 06:15:53;;;;;;;70.60;38.20;;;;;;;1.29;100.00;98421.98;106059;1254;62301;-77
2023/02/17 06:18:20;;;;;;;70.80;36.50;;;;;;;1.30;100.00;98419.90;106137;1253;61219;-77
2023/02/17 06:20:46;;;;;;;69.60;35.20;;;;;;;1.37;100.00;98414.77;106067;1257;61391;-78
2023/02/17 06:23:13;;;;;;;55.80;30.70;;;;;;;1.44;100.00;98413.79;106173;1253;61262;-79
2023/02/17 06:25:39;;;;;;;48.30;27.90;;;;;;;1.46;100.00;98414.00;106221;1257;61363;-77
2023/02/17 06:28:06;;;;;;;52.60;26.80;;;;;;;1.44;100.00;98411.00;106253;1253;61250;-76
2023/02/17 06:30:32;;;;;;;49.80;27.30;;;;;;;1.43;100.00;98404.34;106270;1254;61263;-77
2023/02/17 06:32:58;;;;;;;47.90;26.20;;;;;;;1.43;100.00;98406.80;106221;1253;61235;-77
2023/02/17 06:35:25;;;;;;;54.70;27.30;;;;;;;1.46;100.00;98400.39;106196;1254;61099;-79
2023/02/17 06:37:51;;;;;;;64.50;31.60;;;;;;;1.48;100.00;98398.34;106164;1253;61362;-78
2023/02/17 06:40:18;;;;;;;69.30;32.50;;;;;;;1.53;100.00;98399.20;106127;1254;71581;-77
2023/02/17 06:42:44;;;;;;;52.80;30.30;;;;;;;1.59;100.00;98398.52;106200;1257;61237;-77
2023/02/17 06:45:11;;;;;;;66.00;33.10;;;;;;;1.64;100.00;98399.20;106196;1257;61166;-79
2023/02/17 06:47:37;;;;;;;74.20;37.80;;;;;;;1.62;100.00;98402.10;106048;1256;61244;-79
2023/02/17 06:50:05;;;;;;;82.50;37.60;;;;;;;1.65;100.00;98403.48;107195;1254;61138;-79
2023/02/17 06:52:31;;;;;;;88.40;38.20;;;;;;;1.68;100.00;98401.56;106981;1253;72561;-77
2023/02/17 06:54:58;;;;;;;82.80;38.90;;;;;;;1.72;100.00;98401.71;106887;1253;61148;-77
2023/02/17 06:57:24;;;;;;;98.50;40.90;;;;;;;1.77;100.00;98399.62;106542;1253;61353;-77
2023/02/17 06:59:51;;;;;;;86.30;41.90;;;;;;;1.78;100.00;98399.29;106653;1253;74472;-77
2023/02/17 07:02:18;;;;;;;87.80;41.50;;;;;;;1.80;100.00;98397.93;107265;1253;70907;-79
2023/02/17 07:04:44;;;;;;;84.00;41.20;;;;;;;1.84;100.00;98394.33;107320;1255;71412;-79
2023/02/17 07:07:11;;;;;;;83.40;41.40;;;;;;;1.88;100.00;98397.52;106191;1254;61316;-77
2023/02/17 07:09:37;;;;;;;71.60;38.90;;;;;;;1.93;100.00;98391.69;106387;1254;61313;-77
2023/02/17 07:12:04;;;;;;;76.20;39.60;;;;;;;2.00;100.00;98387.70;107779;1253;59578;-77
2023/02/17 07:14:31;;;;;;;73.40;41.00;;;;;;;2.08;100.00;98396.27;107413;1254;70904;-77
2023/02/17 07:16:58;;;;;;;84.40;40.90;;;;;;;2.17;100.00;98394.44;106457;1253;73774;-79
2023/02/17 07:19:24;;;;;;;76.40;39.30;;;;;;;2.26;100.00;98396.61;106815;1253;61349;-76
2023/02/17 07:21:51;;;;;;;84.50;43.50;;;;;;;2.33;100.00;98402.89;107435;1254;61318;-76
2023/02/17 07:24:17;;;;;;;115.10;57.10;;;;;;;2.35;100.00;98408.06;107785;1254;59406;-79
2023/02/17 07:26:44;;;;;;;82.40;43.90;;;;;;;2.38;100.00;98402.27;106735;1253;61180;-77
2023/02/17 07:29:10;;;;;;;89.70;41.70;;;;;;;2.42;100.00;98401.34;106707;1256;61256;-80
2023/02/17 07:31:37;;;;;;;82.20;44.30;;;;;;;2.47;100.00;98392.48;107842;1253;61199;-76
2023/02/17 07:34:03;;;;;;;171.60;82.70;;;;;;;2.56;100.00;98391.05;107487;1253;61247;-79
2023/02/17 07:36:30;;;;;;;78.10;41.70;;;;;;;2.76;100.00;98389.27;108849;1254;59798;-79
2023/02/17 07:38:56;;;;;;;83.00;40.90;;;;;;;2.98;100.00;98386.67;109115;1253;59255;-79
2023/02/17 07:41:23;;;;;;;78.20;40.40;;;;;;;3.07;100.00;98380.27;109154;1252;59337;-79
2023/02/17 07:43:52;;;;;;;61.90;33.90;;;;;;;3.16;100.00;98373.91;109035;1253;60087;-78
2023/02/17 07:46:19;;;;;;;72.20;37.40;;;;;;;3.26;100.00;98369.19;107814;1253;61238;-79
2023/02/17 07:48:46;;;;;;;75.20;40.20;;;;;;;3.39;100.00;98374.38;106560;1257;60159;-79
2023/02/17 07:51:14;;;;;;;66.30;33.80;;;;;;;3.52;100.00;98368.26;106718;1254;69838;-77
2023/02/17 07:53:41;;;;;;;143.30;82.50;;;;;;;3.65;100.00;98370.29;108953;1253;73837;-80
2023/02/17 07:56:10;;;;;;;76.60;49.30;;;;;;;3.81;100.00;98368.30;107405;1253;61410;-77
2023/02/17 07:58:39;;;;;;;75.80;43.20;;;;;;;4.02;100.00;98362.67;106514;1253;61269;-78
2023/02/17 08:01:10;;;;;;;67.90;39.70;;;;;;;4.23;100.00;98361.59;106722;1254;73676;-77
2023/02/17 08:03:36;;;;;;;76.70;40.40;;;;;;;4.46;100.00;98361.20;108215;1254;71280;-77
2023/02/17 08:06:03;;;;;;;66.10;38.60;;;;;;;4.59;100.00;98358.36;109146;1253;59454;-79
2023/02/17 08:14:01;;;;;;;68.80;36.60;;;;;;;4.97;100.00;98357.64;109024;1252;74573;-77
2023/02/17 08:16:27;;;;;;;76.80;39.40;;;;;;;5.03;100.00;98362.01;106761;1254;71046;-79
2023/02/17 08:18:54;;;;;;;77.40;36.00;;;;;;;5.08;100.00;98360.40;109081;1254;59077;-77
2023/02/17 08:21:24;;;;;;;66.00;36.50;;;;;;;5.11;100.00;98354.76;109094;1253;60336;-79
2023/02/17 08:23:50;;;;;;;66.60;37.00;;;;;;;5.08;100.00;98351.39;109006;1253;61010;-77
2023/02/17 08:26:17;;;;;;;83.80;45.70;;;;;;;5.05;99.94;98348.21;109130;1253;59242;-77
2023/02/17 08:28:44;;;;;;;92.60;52.10;;;;;;;5.02;99.99;98342.00;107815;1254;71106;-80
2023/02/17 08:31:20;;;;;;;96.00;49.10;;;;;;;5.05;100.00;98348.48;108325;1253;72543;-79
2023/02/17 08:33:47;;;;;;;102.30;52.40;;;;;;;5.11;100.00;98346.70;106330;1254;61353;-79
2023/02/17 08:36:13;;;;;;;88.20;46.50;;;;;;;5.18;100.00;98345.57;106285;1254;62295;-77
2023/02/17 08:38:39;;;;;;;95.60;50.80;;;;;;;5.24;100.00;98345.05;106301;1254;61273;-79
2023/02/17 08:41:13;;;;;;;101.40;56.10;;;;;;;5.29;100.00;98341.38;108525;1254;61227;-78
2023/02/17 08:43:40;;;;;;;101.70;56.00;;;;;;;5.35;99.93;98335.17;108785;1252;72483;-77
2023/02/17 08:46:08;;;;;;;173.20;62.60;;;;;;;5.46;100.00;98333.35;108523;1253;59178;-77
2023/02/17 08:48:35;;;;;;;103.00;60.10;;;;;;;5.59;100.00;98335.64;106590;1254;63142;-77
2023/02/17 08:51:03;;;;;;;100.60;52.00;;;;;;;5.69;100.00;98335.79;107458;1254;74564;-77
2023/02/17 08:53:29;;;;;;;92.60;48.80;;;;;;;5.85;100.00;98336.52;109147;1253;72110;-77
2023/02/17 08:55:56;;;;;;;97.30;54.50;;;;;;;5.93;99.98;98329.37;108884;1253;75095;-77
2023/02/17 08:58:22;;;;;;;92.30;54.80;;;;;;;5.99;99.84;98334.73;106568;1253;60308;-77
2023/02/17 09:00:49;;;;;;;94.00;49.60;;;;;;;6.10;99.96;98326.33;107620;1252;61318;-79
2023/02/17 09:03:15;;;;;;;213.00;99.50;;;;;;;6.13;99.70;98319.70;108751;1253;59354;-79
2023/02/17 09:05:42;;;;;;;159.20;75.20;;;;;;;6.12;99.61;98320.33;109147;1253;59176;-78
2023/02/17 09:08:09;;;;;;;127.70;63.50;;;;;;;6.09;99.34;98315.34;106769;1254;61182;-77
2023/02/17 09:10:36;;;;;;;92.70;51.10;;;;;;;6.08;99.70;98321.13;107828;1253;59375;-77
2023/02/17 09:13:03;;;;;;;90.90;48.20;;;;;;;6.09;99.84;98317.01;106642;1253;61167;-77
2023/02/17 09:15:30;;;;;;;77.00;38.20;;;;;;;6.11;99.97;98315.09;107243;1253;74583;-77
2023/02/17 09:17:56;;;;;;;70.90;38.70;;;;;;;6.13;100.00;98318.34;106272;1256;61258;-77
2023/02/17 09:20:23;;;;;;;71.40;40.00;;;;;;;6.13;99.88;98316.84;107153;1253;61251;-77
2023/02/17 09:22:49;;;;;;;79.00;42.30;;;;;;;6.14;100.00;98321.37;106583;1254;61354;-79
2023/02/17 09:25:16;;;;;;;58.60;34.50;;;;;;;6.14;100.00;98323.15;106946;1253;61350;-79
2023/02/17 09:27:42;;;;;;;56.00;34.20;;;;;;;6.14;100.00;98324.52;106357;1252;61331;-79
2023/02/17 09:30:10;;;;;;;56.40;29.40;;;;;;;6.17;100.00;98326.29;107657;1253;61244;-79
2023/02/17 09:32:36;;;;;;;29.90;18.90;;;;;;;6.19;100.00;98329.13;106942;1253;73856;-77
2023/02/17 09:35:04;;;;;;;47.30;27.30;;;;;;;6.26;100.00;98332.14;107632;1254;60646;-77
2023/02/17 09:37:31;;;;;;;39.50;23.60;;;;;;;6.32;100.00;98337.18;106576;1258;61185;-79
2023/02/17 09:39:57;;;;;;;38.80;21.20;;;;;;;6.35;100.00;98336.54;107053;1254;61160;-79
2023/02/17 09:42:25;;;;;;;33.10;17.90;;;;;;;6.37;100.00;98337.42;107997;1253;61275;-77
2023/02/17 09:44:56;;;;;;;32.80;16.80;;;;;;;6.38;100.00;98338.89;108876;1253;70889;-80
2023/02/17 09:47:24;;;;;;;30.10;15.70;;;;;;;6.41;100.00;98334.98;109197;1253;60050;-80
2023/02/17 09:49:56;;;;;;;30.20;16.40;;;;;;;6.47;100.00;98326.08;106936;1254;60184;-80
2023/02/17 09:52:32;;;;;;;28.60;15.40;;;;;;;6.56;100.00;98317.79;108520;1254;74529;-77
2023/02/17 09:55:24;;;;;;;26.20;15.30;;;;;;;6.62;100.00;98310.79;107418;1253;70887;-77
2023/02/17 09:57:55;;;;;;;32.90;19.30;;;;;;;6.71;100.00;98304.78;106204;1254;72988;-79
2023/02/17 10:00:28;;;;;;;33.90;22.10;;;;;;;6.76;100.00;98298.98;106468;1253;61224;-77
2023/02/17 10:03:01;;;;;;;25.80;16.80;;;;;;;6.82;100.00;98298.95;106539;1259;61201;-79
2023/02/17 10:05:32;;;;;;;29.30;17.90;;;;;;;6.87;100.00;98297.41;106933;1254;74255;-79
2023/02/17 10:08:06;;;;;;;26.80;16.20;;;;;;;6.85;100.00;98293.56;106248;1259;71082;-79
2023/02/17 10:10:43;;;;;;;24.30;15.70;;;;;;;6.82;100.00;98289.09;107532;1253;72560;-79
2023/02/17 10:13:10;;;;;;;23.70;15.10;;;;;;;6.74;100.00;98287.47;108376;1259;58939;-77
2023/02/17 10:15:40;;;;;;;24.60;14.20;;;;;;;6.71;100.00;98285.29;106964;1253;59959;-79
2023/02/17 10:18:15;;;;;;;29.10;15.40;;;;;;;6.68;100.00;98289.44;107062;1254;74666;-80
2023/02/17 10:20:46;;;;;;;26.60;16.90;;;;;;;6.67;100.00;98288.83;107374;1252;72878;-77
2023/02/17 10:23:24;;;;;;;28.90;15.70;;;;;;;6.67;100.00;98285.67;106991;1254;71703;-77
2023/02/17 10:26:21;;;;;;;78.60;37.00;;;;;;;6.71;100.00;98280.16;109109;1253;59374;-80
2023/02/17 10:29:18;;;;;;;30.90;18.50;;;;;;;6.74;100.00;98277.95;106936;1254;61264;-79
2023/02/17 10:32:03;;;;;;;32.10;18.30;;;;;;;6.76;100.00;98275.66;106979;1254;73437;-79
2023/02/17 10:34:34;;;;;;;22.20;12.70;;;;;;;6.70;100.00;98268.08;107894;1258;69836;-77
2023/02/17 10:37:13;;;;;;;24.40;12.60;;;;;;;6.69;100.00;98271.25;109360;1253;72586;-76
2023/02/17 10:39:48;;;;;;;23.10;13.00;;;;;;;6.66;100.00;98265.16;109344;1253;59245;-77
2023/02/17 10:42:28;;;;;;;26.40;14.00;;;;;;;6.71;100.00;98259.16;109304;1253;61050;-77
2023/02/17 10:45:01;;;;;;;23.70;13.30;;;;;;;6.71;100.00;98244.45;108604;1254;74549;-77
2023/02/17 10:47:28;;;;;;;23.00;13.60;;;;;;;6.76;100.00;98244.95;108360;1253;70771;-77
2023/02/17 10:49:55;;;;;;;34.60;18.50;;;;;;;6.79;100.00;98247.57;106475;1253;72679;-79
2023/02/17 10:52:23;;;;;;;39.20;19.30;;;;;;;6.75;100.00;98250.48;107065;1253;61218;-80
2023/02/17 10:55:12;;;;;;;31.60;15.40;;;;;;;6.82;100.00;98246.95;109056;1254;60208;-77
2023/02/17 10:57:38;;;;;;;39.50;19.10;;;;;;;6.91;100.00;98249.55;108909;1253;74203;-78
2023/02/17 11:00:08;;;;;;;43.90;22.50;;;;;;;6.95;100.00;98239.86;108995;1254;59036;-77
2023/02/17 11:02:40;;;;;;;34.70;19.80;;;;;;;6.97;100.00;98231.05;109112;1256;72569;-75
2023/02/17 11:05:07;;;;;;;30.40;16.50;;;;;;;6.99;100.00;98224.29;106747;1253;62445;-77
2023/02/17 11:07:38;;;;;;;24.70;16.00;;;;;;;6.95;100.00;98222.44;106268;1253;61215;-78
2023/02/17 11:10:31;;;;;;;22.20;15.30;;;;;;;7.02;100.00;98214.35;106341;1254;73696;-78
2023/02/17 11:12:58;;;;;;;20.30;12.80;;;;;;;7.05;100.00;98202.05;107621;1253;69688;-79
2023/02/17 11:15:44;;;;;;;24.70;13.00;;;;;;;7.19;100.00;98201.61;107479;1254;73614;-77
2023/02/17 11:18:19;;;;;;;29.50;14.40;;;;;;;7.28;100.00;98195.83;106458;1253;61355;-77
2023/02/17 11:20:46;;;;;;;35.40;14.40;;;;;;;7.27;100.00;98194.20;106681;1254;59563;-79
2023/02/17 11:23:20;;;;;;;47.00;19.80;;;;;;;7.29;100.00;98187.74;108057;1254;72906;-79